sensor_id;sensor_type;location;lat;lon;timestamp;pressure;altitude;pressure_sealevel;temperature;humidity
15263;BME280;7733;51.554;13.590;2023-02-19T00:01:43;100375.31;;;9.61;100.00
15263;BME280;7733;51.554;13.590;2023-02-19T00:04:18;100372.66;;;9.67;100.00
15263;BME280;7733;51.554;13.590;2023-02-19T00:06:45;100374.31;;;9.74;100.00
15263;BME280;7733;51.554;13.590;2023-02-19T00:09:13;100376.88;;;9.80;100.00
15263;BME280;7733;51.554;13.590;2023-02-19T00:11:39;100368.06;;;9.87;100.00
15263;BME280;7733;51.554;13.590;2023-02-19T00:14:05;100373.56;;;9.66;100.00
15263;BME280;7733;51.554;13.590;2023-02-19T00:16:37;100365.47;;;9.87;100.00
15263;BME280;7733;51.554;13.590;2023-02-19T00:19:07;100357.56;;;9.89;100.00
15263;BME280;7733;51.554;13.590;2023-02-19T00:21:35;100353.19;;;9.89;100.00
15263;BME280;7733;51.554;13.590;2023-02-19T00:24:04;100349.50;;;10.07;100.00
15263;BME280;7733;51.554;13.590;2023-02-19T00:26:32;100357.16;;;10.25;100.00
15263;BME280;7733;51.554;13.590;2023-02-19T00:28:59;100376.00;;;9.81;100.00
15263;BME280;7733;51.554;13.590;2023-02-19T00:31:31;100378.69;;;9.73;100.00
15263;BME280;7733;51.554;13.590;2023-02-19T00:34:03;100370.13;;;9.58;100.00
15263;BME280;7733;51.554;13.590;2023-02-19T00:36:31;100370.19;;;9.52;100.00
15263;BME280;7733;51.554;13.590;2023-02-19T00:38:58;100371.94;;;9.53;100.00
15263;BME280;7733;51.554;13.590;2023-02-19T00:41:24;100355.28;;;9.58;100.00
15263;BME280;7733;51.554;13.590;2023-02-19T00:43:57;100365.78;;;9.57;100.00
15263;BME280;7733;51.554;13.590;2023-02-19T00:46:36;100363.97;;;9.65;100.00
15263;BME280;7733;51.554;13.590;2023-02-19T00:49:05;100351.78;;;9.58;100.00
15263;BME280;7733;51.554;13.590;2023-02-19T00:51:37;100355.19;;;9.69;100.00
15263;BME280;7733;51.554;13.590;2023-02-19T00:54:04;100344.75;;;9.66;100.00
15263;BME280;7733;51.554;13.590;2023-02-19T00:56:30;100348.38;;;9.53;100.00
15263;BME280;7733;51.554;13.590;2023-02-19T00:58:57;100343.94;;;9.58;100.00
15263;BME280;7733;51.554;13.590;2023-02-19T01:01:23;100355.44;;;9.46;100.00
15263;BME280;7733;51.554;13.590;2023-02-19T01:03:49;100337.84;;;9.56;100.00
15263;BME280;7733;51.554;13.590;2023-02-19T01:06:17;100339.72;;;9.44;100.00
15263;BME280;7733;51.554;13.590;2023-02-19T01:08:44;100328.44;;;9.38;100.00
15263;BME280;7733;51.554;13.590;2023-02-19T01:11:10;100326.69;;;9.41;100.00
15263;BME280;7733;51.554;13.590;2023-02-19T01:13:37;100320.50;;;9.49;100.00
15263;BME280;7733;51.554;13.590;2023-02-19T01:16:04;100320.63;;;9.35;100.00
15263;BME280;7733;51.554;13.590;2023-02-19T01:18:32;100302.00;;;9.61;100.00
15263;BME280;7733;51.554;13.590;2023-02-19T01:20:58;100297.81;;;9.48;100.00
15263;BME280;7733;51.554;13.590;2023-02-19T01:23:24;100297.47;;;9.75;100.00
15263;BME280;7733;51.554;13.590;2023-02-19T01:25:50;100290.59;;;9.68;100.00
15263;BME280;7733;51.554;13.590;2023-02-19T01:28:15;100283.78;;;9.53;100.00
15263;BME280;7733;51.554;13.590;2023-02-19T01:30:41;100280.31;;;9.51;100.00
15263;BME280;7733;51.554;13.590;2023-02-19T01:33:08;100263.53;;;9.67;100.00
15263;BME280;7733;51.554;13.590;2023-02-19T01:35:38;100268.00;;;9.58;100.00
15263;BME280;7733;51.554;13.590;2023-02-19T01:38:04;100266.94;;;9.74;100.00
15263;BME280;7733;51.554;13.590;2023-02-19T01:40:32;100256.47;;;9.74;100.00
15263;BME280;7733;51.554;13.590;2023-02-19T01:42:57;100263.59;;;9.64;100.00
15263;BME280;7733;51.554;13.590;2023-02-19T01:45:30;100260.78;;;9.78;100.00
15263;BME280;7733;51.554;13.590;2023-02-19T01:48:07;100259.16;;;9.68;100.00
15263;BME280;7733;51.554;13.590;2023-02-19T01:50:52;100252.06;;;9.76;100.00
15263;BME280;7733;51.554;13.590;2023-02-19T01:53:24;100245.84;;;9.86;100.00
15263;BME280;7733;51.554;13.590;2023-02-19T01:55:55;100245.75;;;9.92;100.00
15263;BME280;7733;51.554;13.590;2023-02-19T01:58:28;100236.34;;;9.76;100.00
15263;BME280;7733;51.554;13.590;2023-02-19T02:00:57;100230.81;;;9.97;100.00
15263;BME280;7733;51.554;13.590;2023-02-19T02:03:23;100235.03;;;10.09;100.00
15263;BME280;7733;51.554;13.590;2023-02-19T02:06:00;100230.81;;;9.97;100.00
15263;BME280;7733;51.554;13.590;2023-02-19T02:08:27;100236.94;;;9.98;100.00
15263;BME280;7733;51.554;13.590;2023-02-19T02:11:12;100230.56;;;10.16;100.00
15263;BME280;7733;51.554;13.590;2023-02-19T02:13:39;100230.59;;;10.13;100.00
15263;BME280;7733;51.554;13.590;2023-02-19T02:16:13;100226.59;;;9.87;100.00
15263;BME280;7733;51.554;13.590;2023-02-19T02:21:49;100227.03;;;9.54;100.00
15263;BME280;7733;51.554;13.590;2023-02-19T02:24:49;100220.59;;;9.79;100.00
15263;BME280;7733;51.554;13.590;2023-02-19T02:30:21;100193.19;;;10.04;100.00
15263;BME280;7733;51.554;13.590;2023-02-19T02:33:26;100179.88;;;10.17;100.00
15263;BME280;7733;51.554;13.590;2023-02-19T02:36:13;100182.47;;;10.21;100.00
15263;BME280;7733;51.554;13.590;2023-02-19T02:38:44;100168.69;;;10.07;100.00
15263;BME280;7733;51.554;13.590;2023-02-19T02:41:13;100163.88;;;10.35;100.00
15263;BME280;7733;51.554;13.590;2023-02-19T02:43:39;100166.72;;;10.20;100.00
15263;BME280;7733;51.554;13.590;2023-02-19T02:46:08;100161.78;;;10.55;100.00
15263;BME280;7733;51.554;13.590;2023-02-19T02:48:42;100156.69;;;10.48;100.00
15263;BME280;7733;51.554;13.590;2023-02-19T02:51:16;100153.06;;;10.53;100.00
15263;BME280;7733;51.554;13.590;2023-02-19T02:56:51;100149.63;;;10.51;100.00
15263;BME280;7733;51.554;13.590;2023-02-19T02:59:23;100152.94;;;10.61;100.00
15263;BME280;7733;51.554;13.590;2023-02-19T03:02:18;100149.25;;;10.22;100.00
15263;BME280;7733;51.554;13.590;2023-02-19T03:05:05;100145.16;;;10.04;100.00
15263;BME280;7733;51.554;13.590;2023-02-19T03:07:59;100144.06;;;10.16;100.00
15263;BME280;7733;51.554;13.590;2023-02-19T03:10:40;100142.47;;;10.07;100.00
15263;BME280;7733;51.554;13.590;2023-02-19T03:13:15;100128.59;;;10.00;100.00
15263;BME280;7733;51.554;13.590;2023-02-19T03:16:14;100124.94;;;10.11;100.00
15263;BME280;7733;51.554;13.590;2023-02-19T03:19:04;100117.84;;;10.17;100.00
15263;BME280;7733;51.554;13.590;2023-02-19T03:22:12;100115.75;;;9.85;100.00
15263;BME280;7733;51.554;13.590;2023-02-19T03:24:55;100116.34;;;10.01;100.00
15263;BME280;7733;51.554;13.590;2023-02-19T03:27:42;100105.38;;;9.76;100.00
15263;BME280;7733;51.554;13.590;2023-02-19T03:30:18;100115.28;;;10.13;100.00
15263;BME280;7733;51.554;13.590;2023-02-19T03:32:54;100104.13;;;10.01;100.00
15263;BME280;7733;51.554;13.590;2023-02-19T03:35:27;100106.84;;;9.95;100.00
15263;BME280;7733;51.554;13.590;2023-02-19T03:38:16;100108.50;;;9.99;100.00
15263;BME280;7733;51.554;13.590;2023-02-19T03:40:58;100103.50;;;9.87;100.00
15263;BME280;7733;51.554;13.590;2023-02-19T03:47:20;100092.03;;;9.93;100.00
15263;BME280;7733;51.554;13.590;2023-02-19T03:50:26;100089.16;;;10.10;100.00
15263;BME280;7733;51.554;13.590;2023-02-19T03:53:13;100087.59;;;9.96;100.00
15263;BME280;7733;51.554;13.590;2023-02-19T03:58:24;100095.03;;;9.68;100.00
15263;BME280;7733;51.554;13.590;2023-02-19T04:01:14;100096.66;;;9.77;100.00
15263;BME280;7733;51.554;13.590;2023-02-19T04:04:10;100108.13;;;9.70;100.00
15263;BME280;7733;51.554;13.590;2023-02-19T04:06:41;100094.91;;;9.76;100.00
15263;BME280;7733;51.554;13.590;2023-02-19T04:09:13;100088.56;;;9.92;100.00
15263;BME280;7733;51.554;13.590;2023-02-19T04:11:39;100088.56;;;9.92;100.00
15263;BME280;7733;51.554;13.590;2023-02-19T04:14:12;100094.78;;;9.85;100.00
15263;BME280;7733;51.554;13.590;2023-02-19T04:16:51;100102.03;;;9.68;100.00
15263;BME280;7733;51.554;13.590;2023-02-19T04:19:22;100114.28;;;9.66;100.00
15263;BME280;7733;51.554;13.590;2023-02-19T04:21:53;100103.81;;;9.66;100.00
15263;BME280;7733;51.554;13.590;2023-02-19T04:24:40;100099.84;;;9.96;100.00
15263;BME280;7733;51.554;13.590;2023-02-19T04:27:09;100109.47;;;9.94;100.00
15263;BME280;7733;51.554;13.590;2023-02-19T04:29:35;100124.41;;;9.89;100.00
15263;BME280;7733;51.554;13.590;2023-02-19T04:32:01;100121.03;;;9.82;100.00
15263;BME280;7733;51.554;13.590;2023-02-19T04:34:27;100115.69;;;9.88;100.00
15263;BME280;7733;51.554;13.590;2023-02-19T04:36:52;100099.97;;;9.88;100.00
15263;BME280;7733;51.554;13.590;2023-02-19T04:39:18;100102.56;;;9.90;100.00
15263;BME280;7733;51.554;13.590;2023-02-19T04:41:44;100091.38;;;9.82;100.00
15263;BME280;7733;51.554;13.590;2023-02-19T04:44:09;100098.31;;;9.84;100.00
15263;BME280;7733;51.554;13.590;2023-02-19T04:46:35;100105.91;;;9.98;100.00
15263;BME280;7733;51.554;13.590;2023-02-19T04:49:01;100112.28;;;9.83;100.00
15263;BME280;7733;51.554;13.590;2023-02-19T04:51:27;100108.16;;;9.67;100.00
15263;BME280;7733;51.554;13.590;2023-02-19T04:53:52;100115.22;;;9.62;100.00
15263;BME280;7733;51.554;13.590;2023-02-19T04:56:20;100116.31;;;9.45;100.00
15263;BME280;7733;51.554;13.590;2023-02-19T04:58:46;100118.63;;;9.68;100.00
15263;BME280;7733;51.554;13.590;2023-02-19T05:01:12;100110.25;;;9.43;100.00
15263;BME280;7733;51.554;13.590;2023-02-19T05:03:38;100104.91;;;9.51;100.00
15263;BME280;7733;51.554;13.590;2023-02-19T05:06:07;100104.91;;;9.50;100.00
15263;BME280;7733;51.554;13.590;2023-02-19T05:08:33;100105.91;;;9.42;100.00
15263;BME280;7733;51.554;13.590;2023-02-19T05:11:01;100101.31;;;9.57;100.00
15263;BME280;7733;51.554;13.590;2023-02-19T05:13:28;100092.09;;;9.31;100.00
15263;BME280;7733;51.554;13.590;2023-02-19T05:16:00;100085.84;;;9.40;100.00
15263;BME280;7733;51.554;13.590;2023-02-19T05:18:26;100085.88;;;9.37;100.00
15263;BME280;7733;51.554;13.590;2023-02-19T05:20:53;100084.09;;;9.42;100.00
15263;BME280;7733;51.554;13.590;2023-02-19T05:23:19;100085.03;;;9.36;100.00
15263;BME280;7733;51.554;13.590;2023-02-19T05:25:46;100081.53;;;9.37;100.00
15263;BME280;7733;51.554;13.590;2023-02-19T05:28:12;100080.59;;;9.40;100.00
15263;BME280;7733;51.554;13.590;2023-02-19T05:30:50;100111.19;;;9.36;100.00
15263;BME280;7733;51.554;13.590;2023-02-19T05:33:19;100131.06;;;8.80;100.00
15263;BME280;7733;51.554;13.590;2023-02-19T05:35:51;100131.34;;;8.56;100.00
15263;BME280;7733;51.554;13.590;2023-02-19T05:38:18;100122.25;;;8.91;100.00
15263;BME280;7733;51.554;13.590;2023-02-19T05:40:45;100136.19;;;8.93;100.00
15263;BME280;7733;51.554;13.590;2023-02-19T05:43:12;100148.72;;;8.63;100.00
15263;BME280;7733;51.554;13.590;2023-02-19T05:45:39;100163.47;;;8.69;100.00
15263;BME280;7733;51.554;13.590;2023-02-19T05:48:06;100165.44;;;8.45;100.00
15263;BME280;7733;51.554;13.590;2023-02-19T05:50:35;100174.84;;;8.60;100.00
15263;BME280;7733;51.554;13.590;2023-02-19T05:53:04;100178.59;;;8.29;100.00
15263;BME280;7733;51.554;13.590;2023-02-19T05:55:34;100192.47;;;8.43;100.00
15263;BME280;7733;51.554;13.590;2023-02-19T05:58:01;100195.94;;;8.43;100.00
15263;BME280;7733;51.554;13.590;2023-02-19T06:00:27;100208.41;;;8.03;100.00
15263;BME280;7733;51.554;13.590;2023-02-19T06:02:53;100229.53;;;7.54;100.00
15263;BME280;7733;51.554;13.590;2023-02-19T06:05:19;100213.66;;;7.94;100.00
15263;BME280;7733;51.554;13.590;2023-02-19T06:07:45;100230.41;;;7.52;100.00
15263;BME280;7733;51.554;13.590;2023-02-19T06:10:11;100231.25;;;7.65;100.00
15263;BME280;7733;51.554;13.590;2023-02-19T06:12:37;100233.91;;;7.51;100.00
15263;BME280;7733;51.554;13.590;2023-02-19T06:15:05;100242.66;;;7.35;100.00
15263;BME280;7733;51.554;13.590;2023-02-19T06:17:32;100258.38;;;7.10;100.00
15263;BME280;7733;51.554;13.590;2023-02-19T06:19:59;100248.78;;;7.20;100.00
15263;BME280;7733;51.554;13.590;2023-02-19T06:22:26;100259.19;;;7.30;100.00
15263;BME280;7733;51.554;13.590;2023-02-19T06:24:52;100269.66;;;7.23;100.00
15263;BME280;7733;51.554;13.590;2023-02-19T06:27:17;100267.91;;;7.19;100.00
15263;BME280;7733;51.554;13.590;2023-02-19T06:29:43;100272.25;;;7.26;100.00
15263;BME280;7733;51.554;13.590;2023-02-19T06:32:09;100285.34;;;7.05;100.00
15263;BME280;7733;51.554;13.590;2023-02-19T06:34:35;100281.84;;;7.12;100.00
15263;BME280;7733;51.554;13.590;2023-02-19T06:37:01;100290.50;;;7.35;100.00
15263;BME280;7733;51.554;13.590;2023-02-19T06:39:27;100287.09;;;6.90;100.00
15263;BME280;7733;51.554;13.590;2023-02-19T06:41:57;100302.72;;;7.06;100.00
15263;BME280;7733;51.554;13.590;2023-02-19T06:44:24;100299.25;;;6.96;100.00
15263;BME280;7733;51.554;13.590;2023-02-19T06:46:50;100308.81;;;6.88;100.00
15263;BME280;7733;51.554;13.590;2023-02-19T06:49:19;100320.97;;;6.74;100.00
15263;BME280;7733;51.554;13.590;2023-02-19T06:51:44;100313.16;;;6.95;100.00
15263;BME280;7733;51.554;13.590;2023-02-19T06:54:10;100321.81;;;6.59;100.00
15263;BME280;7733;51.554;13.590;2023-02-19T06:56:38;100325.31;;;6.71;100.00
15263;BME280;7733;51.554;13.590;2023-02-19T06:59:11;100339.22;;;6.74;100.00
15263;BME280;7733;51.554;13.590;2023-02-19T07:01:38;100345.31;;;6.71;100.00
15263;BME280;7733;51.554;13.590;2023-02-19T07:04:05;100356.63;;;7.10;100.00
15263;BME280;7733;51.554;13.590;2023-02-19T07:06:33;100348.75;;;7.36;100.00
15263;BME280;7733;51.554;13.590;2023-02-19T07:09:02;100363.56;;;7.20;100.00
15263;BME280;7733;51.554;13.590;2023-02-19T07:11:32;100376.59;;;6.68;100.00
15263;BME280;7733;51.554;13.590;2023-02-19T07:14:01;100384.34;;;6.47;100.00
15263;BME280;7733;51.554;13.590;2023-02-19T07:16:28;100394.75;;;6.36;100.00
15263;BME280;7733;51.554;13.590;2023-02-19T07:18:58;100406.00;;;6.21;100.00
15263;BME280;7733;51.554;13.590;2023-02-19T07:21:25;100414.56;;;6.00;100.00
15263;BME280;7733;51.554;13.590;2023-02-19T07:23:51;100420.69;;;6.10;100.00
15263;BME280;7733;51.554;13.590;2023-02-19T07:26:19;100435.41;;;6.03;100.00
15263;BME280;7733;51.554;13.590;2023-02-19T07:28:47;100434.75;;;6.49;100.00
15263;BME280;7733;51.554;13.590;2023-02-19T07:31:16;100440.88;;;6.70;100.00
15263;BME280;7733;51.554;13.590;2023-02-19T07:33:43;100451.16;;;6.29;100.00
15263;BME280;7733;51.554;13.590;2023-02-19T07:36:10;100437.44;;;6.85;100.00
15263;BME280;7733;51.554;13.590;2023-02-19T07:38:36;100450.44;;;6.71;100.00
15263;BME280;7733;51.554;13.590;2023-02-19T07:41:04;100458.25;;;6.75;100.00
15263;BME280;7733;51.554;13.590;2023-02-19T07:43:33;100462.63;;;6.82;100.00
15263;BME280;7733;51.554;13.590;2023-02-19T07:46:08;100466.06;;;6.61;100.00
15263;BME280;7733;51.554;13.590;2023-02-19T07:48:39;100473.06;;;6.82;100.00
15263;BME280;7733;51.554;13.590;2023-02-19T07:51:09;100485.00;;;6.23;100.00
15263;BME280;7733;51.554;13.590;2023-02-19T07:53:35;100489.41;;;6.39;100.00
15263;BME280;7733;51.554;13.590;2023-02-19T07:56:04;100484.91;;;6.11;100.00
15263;BME280;7733;51.554;13.590;2023-02-19T07:58:31;100491.19;;;6.45;100.00
15263;BME280;7733;51.554;13.590;2023-02-19T08:01:23;100510.97;;;6.14;100.00
15263;BME280;7733;51.554;13.590;2023-02-19T08:04:12;100516.06;;;5.99;100.00
15263;BME280;7733;51.554;13.590;2023-02-19T08:06:39;100527.28;;;5.89;100.00
15263;BME280;7733;51.554;13.590;2023-02-19T08:09:05;100536.72;;;5.76;100.00
15263;BME280;7733;51.554;13.590;2023-02-19T08:11:31;100540.63;;;5.30;100.00
15263;BME280;7733;51.554;13.590;2023-02-19T08:14:15;100550.41;;;5.57;100.00
15263;BME280;7733;51.554;13.590;2023-02-19T08:16:49;100553.91;;;5.57;100.00
15263;BME280;7733;51.554;13.590;2023-02-19T08:19:15;100560.63;;;5.37;100.00
15263;BME280;7733;51.554;13.590;2023-02-19T08:21:40;100569.44;;;5.48;100.00
15263;BME280;7733;51.554;13.590;2023-02-19T08:24:06;100580.66;;;5.44;100.00
15263;BME280;7733;51.554;13.590;2023-02-19T08:26:33;100579.72;;;5.39;100.00
15263;BME280;7733;51.554;13.590;2023-02-19T08:28:59;100583.31;;;5.50;100.00
15263;BME280;7733;51.554;13.590;2023-02-19T08:31:25;100584.94;;;5.39;100.00
15263;BME280;7733;51.554;13.590;2023-02-19T08:33:51;100579.00;;;5.50;100.00
15263;BME280;7733;51.554;13.590;2023-02-19T08:36:17;100585.13;;;5.60;100.00
15263;BME280;7733;51.554;13.590;2023-02-19T08:38:43;100596.94;;;5.26;100.00
15263;BME280;7733;51.554;13.590;2023-02-19T08:41:13;100607.47;;;5.38;100.00
15263;BME280;7733;51.554;13.590;2023-02-19T08:43:40;100596.34;;;5.53;100.00
15263;BME280;7733;51.554;13.590;2023-02-19T08:46:08;100608.63;;;5.63;100.00
15263;BME280;7733;51.554;13.590;2023-02-19T08:48:36;100617.94;;;5.43;100.00
15263;BME280;7733;51.554;13.590;2023-02-19T08:51:06;100611.13;;;5.57;100.00
15263;BME280;7733;51.554;13.590;2023-02-19T08:53:37;100626.66;;;5.48;100.00
15263;BME280;7733;51.554;13.590;2023-02-19T08:56:09;100641.44;;;5.52;100.00
15263;BME280;7733;51.554;13.590;2023-02-19T08:58:35;100637.91;;;5.45;100.00
15263;BME280;7733;51.554;13.590;2023-02-19T09:01:06;100633.63;;;5.52;100.00
15263;BME280;7733;51.554;13.590;2023-02-19T09:03:32;100632.94;;;5.68;100.00
15263;BME280;7733;51.554;13.590;2023-02-19T09:05:58;100644.06;;;5.55;100.00
15263;BME280;7733;51.554;13.590;2023-02-19T09:08:23;100646.66;;;5.55;100.00
15263;BME280;7733;51.554;13.590;2023-02-19T09:11:00;100637.19;;;5.60;100.00
15263;BME280;7733;51.554;13.590;2023-02-19T09:13:27;100652.72;;;5.53;100.00
15263;BME280;7733;51.554;13.590;2023-02-19T09:15:53;100644.16;;;5.63;100.00
15263;BME280;7733;51.554;13.590;2023-02-19T09:18:22;100649.28;;;5.55;100.00
15263;BME280;7733;51.554;13.590;2023-02-19T09:20:48;100653.78;;;5.70;100.00
15263;BME280;7733;51.554;13.590;2023-02-19T09:23:14;100652.03;;;5.69;100.00
15263;BME280;7733;51.554;13.590;2023-02-19T09:25:39;100665.00;;;5.66;100.00
15263;BME280;7733;51.554;13.590;2023-02-19T09:28:05;100671.13;;;5.72;100.00
15263;BME280;7733;51.554;13.590;2023-02-19T09:30:31;100680.84;;;5.89;100.00
15263;BME280;7733;51.554;13.590;2023-02-19T09:32:57;100681.81;;;5.97;100.00
15263;BME280;7733;51.554;13.590;2023-02-19T09:35:22;100678.47;;;6.07;100.00
15263;BME280;7733;51.554;13.590;2023-02-19T09:37:48;100691.50;;;6.10;100.00
15263;BME280;7733;51.554;13.590;2023-02-19T09:40:14;100690.94;;;6.48;100.00
15263;BME280;7733;51.554;13.590;2023-02-19T09:42:46;100694.91;;;6.03;100.00
15263;BME280;7733;51.554;13.590;2023-02-19T09:45:24;100699.41;;;6.21;100.00
15263;BME280;7733;51.554;13.590;2023-02-19T09:47:56;100704.66;;;6.25;100.00
15263;BME280;7733;51.554;13.590;2023-02-19T09:50:33;100701.94;;;6.12;100.00
15263;BME280;7733;51.554;13.590;2023-02-19T09:53:11;100711.69;;;6.37;100.00
15263;BME280;7733;51.554;13.590;2023-02-19T09:55:42;100727.31;;;6.35;100.00
15263;BME280;7733;51.554;13.590;2023-02-19T09:58:25;100720.13;;;6.10;100.00
15263;BME280;7733;51.554;13.590;2023-02-19T10:00:55;100738.38;;;6.10;100.00
15263;BME280;7733;51.554;13.590;2023-02-19T10:03:26;100740.72;;;5.87;100.00
15263;BME280;7733;51.554;13.590;2023-02-19T10:06:23;100758.72;;;5.70;100.00
15263;BME280;7733;51.554;13.590;2023-02-19T10:09:17;100756.38;;;5.90;100.00
15263;BME280;7733;51.554;13.590;2023-02-19T10:11:46;100755.72;;;6.08;100.00
15263;BME280;7733;51.554;13.590;2023-02-19T10:14:39;100767.59;;;5.86;100.00
15263;BME280;7733;51.554;13.590;2023-02-19T10:17:17;100773.03;;;6.03;100.00
15263;BME280;7733;51.554;13.590;2023-02-19T10:19:45;100771.53;;;6.26;100.00
15263;BME280;7733;51.554;13.590;2023-02-19T10:22:12;100772.47;;;6.34;100.00
15263;BME280;7733;51.554;13.590;2023-02-19T10:24:40;100774.91;;;6.19;100.00
15263;BME280;7733;51.554;13.590;2023-02-19T10:27:14;100770.63;;;6.24;100.00
15263;BME280;7733;51.554;13.590;2023-02-19T10:29:44;100782.03;;;6.38;100.00
15263;BME280;7733;51.554;13.590;2023-02-19T10:32:23;100778.50;;;6.30;100.00
15263;BME280;7733;51.554;13.590;2023-02-19T10:35:13;100771.59;;;6.37;100.00
15263;BME280;7733;51.554;13.590;2023-02-19T10:37:46;100775.19;;;6.47;100.00
15263;BME280;7733;51.554;13.590;2023-02-19T10:40:21;100792.47;;;6.38;100.00
15263;BME280;7733;51.554;13.590;2023-02-19T10:42:56;100789.31;;;6.73;100.00
15263;BME280;7733;51.554;13.590;2023-02-19T10:45:33;100799.25;;;7.26;100.00
15263;BME280;7733;51.554;13.590;2023-02-19T10:48:00;100798.22;;;7.01;100.00
15263;BME280;7733;51.554;13.590;2023-02-19T10:50:35;100803.34;;;6.90;100.00
15263;BME280;7733;51.554;13.590;2023-02-19T10:53:21;100813.88;;;7.01;99.31
15263;BME280;7733;51.554;13.590;2023-02-19T10:56:14;100817.31;;;6.98;100.00
15263;BME280;7733;51.554;13.590;2023-02-19T10:58:43;100819.03;;;6.96;100.00
15263;BME280;7733;51.554;13.590;2023-02-19T11:01:24;100821.63;;;6.95;98.08
15263;BME280;7733;51.554;13.590;2023-02-19T11:04:16;100828.59;;;6.99;97.14
15263;BME280;7733;51.554;13.590;2023-02-19T11:06:44;100835.78;;;7.27;95.15
15263;BME280;7733;51.554;13.590;2023-02-19T11:09:36;100850.41;;;7.03;96.40
15263;BME280;7733;51.554;13.590;2023-02-19T11:12:03;100843.28;;;6.83;95.59
15263;BME280;7733;51.554;13.590;2023-02-19T11:14:32;100850.25;;;6.84;93.26
15263;BME280;7733;51.554;13.590;2023-02-19T11:17:01;100852.81;;;6.81;91.84
15263;BME280;7733;51.554;13.590;2023-02-19T11:19:43;100851.97;;;6.82;93.64
15263;BME280;7733;51.554;13.590;2023-02-19T11:22:31;100854.81;;;7.14;94.58
15263;BME280;7733;51.554;13.590;2023-02-19T11:30:45;100866.66;;;6.74;87.85
15263;BME280;7733;51.554;13.590;2023-02-19T11:35:48;100862.72;;;7.22;91.03
15263;BME280;7733;51.554;13.590;2023-02-19T11:38:17;100867.94;;;7.25;90.82
15263;BME280;7733;51.554;13.590;2023-02-19T11:56:17;100877.91;;;7.87;86.79
15263;BME280;7733;51.554;13.590;2023-02-19T11:59:01;100878.00;;;8.08;86.10
15263;BME280;7733;51.554;13.590;2023-02-19T12:10:28;100881.56;;;8.32;82.64
15263;BME280;7733;51.554;13.590;2023-02-19T12:13:27;100886.88;;;8.51;82.20
15263;BME280;7733;51.554;13.590;2023-02-19T12:16:30;100894.53;;;8.10;79.47
15263;BME280;7733;51.554;13.590;2023-02-19T12:19:24;100877.03;;;7.89;77.96
15263;BME280;7733;51.554;13.590;2023-02-19T12:28:06;100876.19;;;7.97;76.88
15263;BME280;7733;51.554;13.590;2023-02-19T12:34:05;100889.00;;;7.52;77.07
15263;BME280;7733;51.554;13.590;2023-02-19T12:46:08;100891.91;;;8.01;74.66
15263;BME280;7733;51.554;13.590;2023-02-19T12:51:00;100899.78;;;8.19;75.65
15263;BME280;7733;51.554;13.590;2023-02-19T12:53:42;100903.41;;;8.43;75.85
15263;BME280;7733;51.554;13.590;2023-02-19T12:56:21;100906.00;;;8.40;75.02
15263;BME280;7733;51.554;13.590;2023-02-19T12:59:23;100908.66;;;8.58;75.10
15263;BME280;7733;51.554;13.590;2023-02-19T13:08:02;100930.44;;;8.42;74.14
15263;BME280;7733;51.554;13.590;2023-02-19T13:10:46;100934.91;;;8.86;75.41
15263;BME280;7733;51.554;13.590;2023-02-19T13:13:31;100927.91;;;8.97;74.81
15263;BME280;7733;51.554;13.590;2023-02-19T13:16:06;100920.09;;;9.04;75.08
15263;BME280;7733;51.554;13.590;2023-02-19T13:19:02;100928.78;;;8.90;73.49
15263;BME280;7733;51.554;13.590;2023-02-19T13:21:33;100924.41;;;8.73;74.23
15263;BME280;7733;51.554;13.590;2023-02-19T13:24:27;100930.31;;;8.27;73.06
15263;BME280;7733;51.554;13.590;2023-02-19T13:30:12;100944.78;;;7.63;71.95
15263;BME280;7733;51.554;13.590;2023-02-19T13:33:02;100956.00;;;7.53;72.04
15263;BME280;7733;51.554;13.590;2023-02-19T13:36:15;100950.16;;;7.85;72.69
15263;BME280;7733;51.554;13.590;2023-02-19T13:38:15;100951.00;;;7.84;72.78
15263;BME280;7733;51.554;13.590;2023-02-19T13:40:54;100949.41;;;8.13;72.46
15263;BME280;7733;51.554;13.590;2023-02-19T13:43:29;100953.66;;;7.93;71.75
15263;BME280;7733;51.554;13.590;2023-02-19T13:46:13;100954.63;;;8.04;72.57
15263;BME280;7733;51.554;13.590;2023-02-19T13:48:42;100941.59;;;8.16;72.73
15263;BME280;7733;51.554;13.590;2023-02-19T13:59:33;100940.66;;;8.02;69.98
15263;BME280;7733;51.554;13.590;2023-02-19T14:04:46;100961.53;;;7.99;71.14
15263;BME280;7733;51.554;13.590;2023-02-19T14:17:41;100960.94;;;8.55;68.92
15263;BME280;7733;51.554;13.590;2023-02-19T14:33:33;100976.63;;;8.46;66.80
15263;BME280;7733;51.554;13.590;2023-02-19T14:36:44;100984.47;;;8.44;67.47
15263;BME280;7733;51.554;13.590;2023-02-19T14:39:29;100988.81;;;8.44;65.86
15263;BME280;7733;51.554;13.590;2023-02-19T14:42:07;100976.50;;;8.31;65.63
15263;BME280;7733;51.554;13.590;2023-02-19T14:44:55;100977.31;;;8.20;65.43
15263;BME280;7733;51.554;13.590;2023-02-19T14:47:26;100993.84;;;8.16;64.97
15263;BME280;7733;51.554;13.590;2023-02-19T14:50:05;100988.69;;;8.24;65.62
15263;BME280;7733;51.554;13.590;2023-02-19T14:52:39;100994.72;;;8.20;65.10
15263;BME280;7733;51.554;13.590;2023-02-19T14:55:23;100993.78;;;8.04;64.71
15263;BME280;7733;51.554;13.590;2023-02-19T14:57:54;100994.59;;;7.94;66.63
15263;BME280;7733;51.554;13.590;2023-02-19T15:02:51;100994.56;;;7.86;65.24
15263;BME280;7733;51.554;13.590;2023-02-19T15:05:22;100997.19;;;7.92;64.60
15263;BME280;7733;51.554;13.590;2023-02-19T15:07:51;100999.84;;;8.00;65.60
15263;BME280;7733;51.554;13.590;2023-02-19T15:10:18;101002.50;;;8.03;66.04
15263;BME280;7733;51.554;13.590;2023-02-19T15:15:32;101014.72;;;8.10;66.96
15263;BME280;7733;51.554;13.590;2023-02-19T15:18:01;101015.50;;;7.96;67.34